« Back
NWS Peachtree City, Ga » Text Product » CSG Terminal Aerodrome Forecast


Printer-friendly Version
Current Version              Previous Versions:   1  2  3  4  5  6  7  8  9  

Terminal Aerodrome Forecast

606
FTUS42 KFFC 231100
TAFCSG
TAF
KCSG 231120Z 2312/2412 05007KT P6SM OVC010
      TEMPO 2312/2314 BKN008
     FM231400 08010KT P6SM BKN012
     FM231600 08010KT P6SM SCT030
     FM240000 08008KT P6SM SCT040=

USA.gov is the U.S. government's official web portal to all federal, state and local government web resources and services.